createdAt,value
2019-02-26T00:02:07.209Z,4.04
2019-02-26T00:04:36.927Z,4.04
2019-02-26T00:07:05.779Z,4.11
2019-02-26T00:09:35.373Z,4.14
2019-02-26T00:12:04.472Z,4.15
2019-02-26T00:14:33.515Z,4.18
2019-02-26T00:17:06.212Z,4.24
2019-02-26T00:19:32.732Z,4.26
2019-02-26T00:22:01.484Z,4.22
2019-02-26T00:24:30.756Z,4.23
2019-02-26T00:27:01.598Z,4.25
2019-02-26T00:29:32.177Z,4.23
2019-02-26T00:32:01.462Z,4.29
2019-02-26T00:34:32.162Z,4.25
2019-02-26T00:37:01.770Z,4.24
2019-02-26T00:39:31.556Z,4.21
2019-02-26T00:42:02.523Z,4.20
2019-02-26T00:44:32.710Z,4.17
2019-02-26T00:47:02.544Z,4.10
2019-02-26T00:49:32.184Z,4.07
2019-02-26T00:52:01.109Z,4.10
2019-02-26T00:54:31.966Z,4.06
2019-02-26T00:57:01.630Z,4.08
2019-02-26T00:59:31.133Z,4.12
2019-02-26T01:01:59.850Z,4.15
2019-02-26T01:04:28.604Z,4.15
2019-02-26T01:06:59.129Z,4.15
2019-02-26T01:09:29.414Z,4.24
2019-02-26T01:11:58.587Z,4.25
2019-02-26T01:14:27.446Z,4.29
2019-02-26T01:16:56.440Z,4.31
2019-02-26T01:19:25.362Z,4.41
2019-02-26T01:21:54.098Z,4.49
2019-02-26T01:24:24.331Z,4.49
2019-02-26T01:26:53.361Z,4.47
2019-02-26T01:29:23.091Z,4.46
2019-02-26T01:31:52.805Z,4.52
2019-02-26T01:34:21.664Z,4.66
2019-02-26T01:36:50.372Z,4.90
2019-02-26T01:39:21.142Z,5.06
2019-02-26T01:41:51.171Z,5.25
2019-02-26T01:44:19.965Z,5.38
2019-02-26T01:46:48.890Z,5.57
2019-02-26T01:49:19.222Z,5.64
2019-02-26T01:51:49.723Z,5.71
2019-02-26T01:54:18.570Z,5.81
2019-02-26T01:56:47.707Z,5.83
2019-02-26T01:59:18.927Z,5.90
2019-02-26T02:01:49.672Z,5.88
2019-02-26T02:04:19.663Z,5.84
2019-02-26T02:06:49.328Z,5.88
2019-02-26T02:09:20.541Z,5.90
2019-02-26T02:11:50.326Z,5.92
2019-02-26T02:14:19.868Z,5.94
2019-02-26T02:16:49.463Z,6.00
2019-02-26T02:19:20.866Z,5.96
2019-02-26T02:21:51.496Z,6.03
2019-02-26T02:24:22.881Z,6.09
2019-02-26T02:26:53.558Z,6.01
2019-02-26T02:29:24.634Z,6.01
2019-02-26T02:31:54.890Z,6.05
2019-02-26T02:34:26.987Z,6.08
2019-02-26T02:36:56.838Z,6.18
2019-02-26T02:39:27.321Z,6.15
2019-02-26T02:41:57.903Z,6.18
2019-02-26T02:44:27.333Z,6.20
2019-02-26T02:46:58.559Z,6.34
2019-02-26T02:49:29.683Z,6.36
2019-02-26T02:52:01.454Z,6.42
2019-02-26T02:54:30.546Z,6.50
2019-02-26T02:57:02.396Z,6.59
2019-02-26T02:59:34.031Z,6.58
2019-02-26T03:02:02.313Z,6.57
2019-02-26T03:04:34.695Z,6.54
2019-02-26T03:07:03.294Z,6.47
2019-02-26T03:09:37.211Z,6.49
2019-02-26T03:12:04.022Z,6.52
2019-02-26T03:14:35.785Z,6.53
2019-02-26T03:17:06.410Z,6.55
2019-02-26T03:19:38.474Z,6.53
2019-02-26T03:22:07.803Z,6.54
2019-02-26T03:24:38.178Z,6.56
2019-02-26T03:27:08.144Z,6.57
2019-02-26T03:29:37.581Z,6.54
2019-02-26T03:32:07.143Z,6.59
2019-02-26T03:34:36.610Z,6.58
2019-02-26T03:37:08.182Z,6.55
2019-02-26T03:39:37.299Z,6.46
2019-02-26T03:42:08.237Z,6.47
2019-02-26T03:44:37.973Z,6.44
2019-02-26T03:47:07.370Z,6.48
2019-02-26T03:49:37.147Z,6.47
2019-02-26T03:52:06.559Z,6.40
2019-02-26T03:54:39.831Z,6.35
2019-02-26T03:57:09.009Z,6.34
2019-02-26T03:59:38.567Z,6.32
2019-02-26T04:02:09.359Z,6.34
2019-02-26T04:04:39.282Z,6.33
2019-02-26T04:07:10.676Z,6.28
2019-02-26T04:09:42.272Z,6.28
2019-02-26T04:12:13.562Z,6.34
2019-02-26T04:14:43.484Z,6.39
2019-02-26T04:17:13.299Z,6.43
2019-02-26T04:19:44.537Z,6.40
2019-02-26T04:22:27.747Z,6.38
2019-02-26T04:25:06.370Z,6.42
2019-02-26T04:27:52.875Z,6.43
2019-02-26T04:30:38.975Z,6.40
2019-02-26T04:33:41.413Z,6.40
2019-02-26T04:36:26.510Z,6.39
2019-02-26T04:39:28.103Z,6.34
2019-02-26T04:42:16.840Z,6.35
2019-02-26T04:45:05.942Z,6.39
2019-02-26T04:47:49.580Z,6.38
2019-02-26T04:50:17.926Z,6.39
2019-02-26T04:52:48.047Z,6.42
2019-02-26T04:55:17.739Z,6.40
2019-02-26T04:57:49.081Z,6.40
2019-02-26T05:00:18.427Z,6.31
2019-02-26T05:02:47.875Z,6.24
2019-02-26T05:05:17.503Z,6.24
2019-02-26T05:07:49.316Z,6.24
2019-02-26T05:10:20.384Z,6.24
2019-02-26T05:12:53.238Z,6.31
2019-02-26T05:15:23.349Z,6.22
2019-02-26T05:17:52.552Z,6.24
2019-02-26T05:20:22.240Z,6.24
2019-02-26T05:22:58.471Z,6.21
2019-02-26T05:25:26.583Z,6.16
2019-02-26T05:27:56.016Z,6.14
2019-02-26T05:30:25.493Z,6.15
2019-02-26T05:32:57.230Z,6.16
2019-02-26T05:35:25.647Z,6.10
2019-02-26T05:37:56.186Z,6.12
2019-02-26T05:40:26.304Z,6.04
2019-02-26T05:42:56.840Z,6.15
2019-02-26T05:45:29.313Z,6.14
2019-02-26T05:47:59.014Z,6.11
2019-02-26T05:50:30.212Z,6.15
2019-02-26T05:53:01.915Z,6.12
2019-02-26T05:55:31.112Z,6.14
2019-02-26T05:58:00.643Z,6.07
2019-02-26T06:00:33.082Z,6.07
2019-02-26T06:03:03.074Z,6.05
2019-02-26T06:05:32.536Z,6.08
2019-02-26T06:08:01.977Z,6.03
2019-02-26T06:10:32.591Z,6.08
2019-02-26T06:13:04.843Z,6.13
2019-02-26T06:15:34.204Z,6.19
2019-02-26T06:18:03.932Z,6.22
2019-02-26T06:20:34.508Z,6.35
2019-02-26T06:23:04.835Z,6.42
2019-02-26T06:25:34.330Z,6.56
2019-02-26T06:28:06.866Z,6.58
2019-02-26T06:30:35.062Z,6.62
2019-02-26T06:33:06.593Z,6.70
2019-02-26T06:35:36.618Z,6.84
2019-02-26T06:38:09.283Z,6.87
2019-02-26T06:40:39.299Z,6.86
2019-02-26T06:43:10.019Z,6.98
2019-02-26T06:45:41.052Z,7.12
2019-02-26T06:48:14.619Z,7.21
2019-02-26T06:50:43.500Z,7.23
2019-02-26T06:53:13.733Z,7.12
2019-02-26T06:55:44.185Z,7.23
2019-02-26T06:58:24.665Z,7.43
2019-02-26T07:00:55.576Z,7.19
2019-02-26T07:03:25.133Z,7.02
2019-02-26T07:05:54.564Z,6.96
2019-02-26T07:08:25.984Z,7.01
2019-02-26T07:10:55.436Z,7.01
2019-02-26T07:13:24.943Z,7.49
2019-02-26T07:15:54.529Z,7.85
2019-02-26T07:18:23.950Z,7.71
2019-02-26T07:20:55.958Z,8.42
2019-02-26T07:23:24.861Z,8.80
2019-02-26T07:25:54.378Z,9.19
2019-02-26T07:28:26.840Z,9.01
2019-02-26T07:30:55.816Z,9.07
2019-02-26T07:33:27.260Z,9.60
2019-02-26T07:35:58.895Z,10.78
2019-02-26T07:38:27.923Z,11.00
2019-02-26T07:41:00.828Z,11.98
2019-02-26T07:43:28.566Z,12.47
2019-02-26T07:45:58.201Z,10.89
2019-02-26T07:48:29.513Z,10.64
2019-02-26T07:50:59.072Z,10.74
2019-02-26T07:53:28.905Z,11.50
2019-02-26T07:55:59.590Z,11.80
2019-02-26T07:58:31.415Z,11.76
2019-02-26T08:01:01.289Z,11.47
2019-02-26T08:03:30.859Z,11.31
2019-02-26T08:06:04.823Z,10.56
2019-02-26T08:08:31.731Z,11.00
2019-02-26T08:11:01.376Z,11.43
2019-02-26T08:13:32.077Z,12.58
2019-02-26T08:16:04.887Z,14.26
2019-02-26T08:18:33.797Z,14.83
2019-02-26T08:21:05.053Z,14.82
2019-02-26T08:23:34.658Z,15.75
2019-02-26T08:26:04.207Z,14.97
2019-02-26T08:28:36.988Z,15.55
2019-02-26T08:31:06.845Z,16.36
2019-02-26T08:33:36.565Z,15.03
2019-02-26T08:36:06.178Z,15.01
2019-02-26T08:38:35.611Z,15.39
2019-02-26T08:41:05.079Z,16.32
2019-02-26T08:43:34.593Z,16.62
2019-02-26T08:46:04.254Z,17.95
2019-02-26T08:48:33.858Z,17.79
2019-02-26T08:51:06.171Z,16.92
2019-02-26T08:53:35.758Z,16.74
2019-02-26T08:56:05.455Z,16.74
2019-02-26T08:58:35.041Z,18.03
2019-02-26T09:01:05.193Z,18.03
2019-02-26T09:03:40.626Z,16.42
2019-02-26T09:06:12.804Z,17.26
2019-02-26T09:08:38.593Z,16.70
2019-02-26T09:11:10.799Z,16.08
2019-02-26T09:13:41.272Z,15.30
2019-02-26T09:16:11.114Z,16.71
2019-02-26T09:18:40.764Z,16.03
2019-02-26T09:21:12.513Z,16.01
2019-02-26T09:23:41.583Z,16.63
2019-02-26T09:26:11.031Z,15.69
2019-02-26T09:28:40.497Z,15.30
2019-02-26T09:31:12.452Z,15.34
2019-02-26T09:33:43.446Z,14.43
2019-02-26T09:36:15.183Z,15.29
2019-02-26T09:38:44.982Z,14.32
2019-02-26T09:41:16.687Z,15.29
2019-02-26T09:43:48.049Z,14.75
2019-02-26T09:46:19.127Z,15.60
2019-02-26T09:48:49.021Z,15.81
2019-02-26T09:51:18.692Z,16.16
2019-02-26T09:53:50.070Z,16.13
2019-02-26T09:56:19.711Z,16.61
2019-02-26T09:58:50.857Z,16.49
2019-02-26T10:01:20.503Z,16.45
2019-02-26T10:03:50.192Z,17.01
2019-02-26T10:06:21.661Z,15.84
2019-02-26T10:08:53.184Z,16.47
2019-02-26T10:11:23.097Z,16.78
2019-02-26T10:13:53.672Z,16.61
2019-02-26T10:16:25.346Z,16.94
2019-02-26T10:18:56.773Z,16.91
2019-02-26T10:21:25.920Z,16.53
2019-02-26T10:23:56.883Z,16.48
2019-02-26T10:26:28.690Z,16.66
2019-02-26T10:29:04.126Z,16.86
2019-02-26T10:31:29.277Z,17.50
2019-02-26T10:33:58.892Z,17.24
2019-02-26T10:36:32.466Z,17.01
2019-02-26T10:39:00.731Z,16.86
2019-02-26T10:41:30.877Z,15.79
2019-02-26T10:44:00.606Z,17.34
2019-02-26T10:46:32.142Z,17.48
2019-02-26T10:49:01.526Z,18.20
2019-02-26T10:51:31.008Z,18.36
2019-02-26T10:54:02.605Z,16.99
2019-02-26T10:56:36.765Z,18.34
2019-02-26T10:59:06.090Z,18.27
2019-02-26T11:01:34.338Z,17.92
2019-02-26T11:04:04.605Z,17.85
2019-02-26T11:06:38.279Z,18.52
2019-02-26T11:09:09.081Z,18.19
2019-02-26T11:11:40.001Z,18.31
2019-02-26T11:14:10.690Z,17.30
2019-02-26T11:16:41.418Z,17.56
2019-02-26T11:19:12.393Z,18.11
2019-02-26T11:21:42.126Z,18.14
2019-02-26T11:24:11.568Z,18.58
2019-02-26T11:26:43.731Z,18.36
2019-02-26T11:29:12.794Z,18.51
2019-02-26T11:31:44.567Z,18.32
2019-02-26T11:34:13.542Z,19.02
2019-02-26T11:36:43.665Z,19.05
2019-02-26T11:39:13.151Z,18.12
2019-02-26T11:41:42.582Z,17.94
2019-02-26T11:44:14.708Z,18.31
2019-02-26T11:46:44.540Z,18.62
2019-02-26T11:49:16.877Z,18.62
2019-02-26T11:51:45.897Z,17.83
2019-02-26T11:54:17.539Z,17.21
2019-02-26T11:56:47.305Z,18.48
2019-02-26T11:59:19.479Z,18.94
2019-02-26T12:01:49.390Z,18.59
2019-02-26T12:04:18.841Z,18.41
2019-02-26T12:06:48.691Z,19.04
2019-02-26T12:09:18.194Z,19.83
2019-02-26T12:11:47.647Z,18.26
2019-02-26T12:14:19.443Z,18.96
2019-02-26T12:16:48.893Z,19.08
2019-02-26T12:19:18.625Z,19.41
2019-02-26T12:21:49.424Z,20.19
2019-02-26T12:24:19.651Z,19.88
2019-02-26T12:26:50.100Z,19.66
2019-02-26T12:29:21.072Z,20.01
2019-02-26T12:31:53.805Z,20.47
2019-02-26T12:34:23.631Z,20.14
2019-02-26T12:36:56.648Z,20.01
2019-02-26T12:39:25.694Z,21.21
2019-02-26T12:41:55.898Z,20.79
2019-02-26T12:44:28.814Z,21.20
2019-02-26T12:47:00.177Z,21.57
2019-02-26T12:49:29.419Z,20.94
2019-02-26T12:52:02.838Z,21.29
2019-02-26T12:54:33.262Z,22.20
2019-02-26T12:57:04.180Z,22.92
2019-02-26T12:59:33.512Z,22.77
2019-02-26T13:02:05.550Z,22.66
2019-02-26T13:04:37.425Z,22.03
2019-02-26T13:07:08.619Z,21.91
2019-02-26T13:09:41.343Z,22.06
2019-02-26T13:12:08.556Z,22.21
2019-02-26T13:14:37.959Z,21.17
2019-02-26T13:17:07.399Z,21.65
2019-02-26T13:19:37.305Z,22.28
2019-02-26T13:22:09.714Z,21.95
2019-02-26T13:24:38.200Z,21.86
2019-02-26T13:27:07.726Z,22.11
2019-02-26T13:29:42.505Z,21.71
2019-02-26T13:32:13.115Z,21.44
2019-02-26T13:34:40.091Z,21.68
2019-02-26T13:37:09.537Z,21.46
2019-02-26T13:39:41.529Z,21.33
2019-02-26T13:42:13.979Z,22.55
2019-02-26T13:44:41.845Z,22.04
2019-02-26T13:47:11.248Z,23.26
2019-02-26T13:49:40.803Z,21.92
2019-02-26T13:52:10.340Z,21.79
2019-02-26T13:54:39.838Z,23.70
2019-02-26T13:57:09.454Z,22.58
2019-02-26T13:59:38.990Z,22.21
2019-02-26T14:02:08.791Z,22.48
2019-02-26T14:04:38.291Z,22.57
2019-02-26T14:07:07.706Z,21.18
2019-02-26T14:09:37.248Z,21.32
2019-02-26T14:12:06.704Z,21.45
2019-02-26T14:14:36.244Z,22.05
2019-02-26T14:17:05.788Z,20.99
2019-02-26T14:19:35.424Z,20.95
2019-02-26T14:22:05.003Z,20.46
2019-02-26T14:24:34.728Z,21.39
2019-02-26T14:27:04.879Z,21.00
2019-02-26T14:29:34.454Z,20.55
2019-02-26T14:32:04.156Z,20.27
2019-02-26T14:34:35.417Z,20.54
2019-02-26T14:37:05.069Z,20.79
2019-02-26T14:39:34.944Z,18.13
2019-02-26T14:42:04.545Z,17.48
2019-02-26T14:44:34.003Z,17.07
2019-02-26T14:47:03.677Z,16.03
2019-02-26T14:49:33.271Z,16.22
2019-02-26T14:52:02.711Z,15.28
2019-02-26T14:54:32.379Z,15.41
2019-02-26T14:57:02.010Z,15.42
2019-02-26T14:59:32.985Z,15.55
2019-02-26T15:02:02.670Z,15.39
2019-02-26T15:04:32.502Z,14.73
2019-02-26T15:07:02.102Z,14.75
2019-02-26T15:09:32.022Z,14.94
2019-02-26T15:12:01.585Z,14.94
2019-02-26T15:14:31.193Z,14.34
2019-02-26T15:17:00.708Z,14.00
2019-02-26T15:19:30.253Z,14.22
2019-02-26T15:21:59.691Z,13.80
2019-02-26T15:24:29.486Z,13.72
2019-02-26T15:26:59.041Z,13.35
2019-02-26T15:29:28.499Z,13.61
2019-02-26T15:31:58.019Z,13.85
2019-02-26T15:34:27.629Z,14.03
2019-02-26T15:36:57.865Z,13.53
2019-02-26T15:39:27.560Z,13.64
2019-02-26T15:41:57.094Z,13.30
2019-02-26T15:44:28.812Z,13.61
2019-02-26T15:46:59.617Z,13.59
2019-02-26T15:49:29.504Z,13.41
2019-02-26T15:51:59.139Z,13.16
2019-02-26T15:54:28.807Z,13.19
2019-02-26T15:57:00.504Z,12.99
2019-02-26T15:59:30.174Z,12.85
2019-02-26T16:01:59.677Z,12.66
2019-02-26T16:04:29.521Z,12.75
2019-02-26T16:06:59.304Z,12.29
2019-02-26T16:09:28.827Z,12.52
2019-02-26T16:11:58.648Z,12.73
2019-02-26T16:14:28.985Z,12.44
2019-02-26T16:16:58.673Z,12.23
2019-02-26T16:19:28.182Z,12.01
2019-02-26T16:21:57.592Z,11.77
2019-02-26T16:24:27.082Z,11.86
2019-02-26T16:26:56.576Z,11.59
2019-02-26T16:29:26.075Z,12.14
2019-02-26T16:31:57.257Z,11.99
2019-02-26T16:34:26.973Z,11.78
2019-02-26T16:36:56.502Z,11.82
2019-02-26T16:39:26.170Z,11.44
2019-02-26T16:41:56.168Z,11.79
2019-02-26T16:44:25.696Z,11.54
2019-02-26T16:46:55.211Z,11.51
2019-02-26T16:49:25.834Z,11.70
2019-02-26T16:51:55.917Z,11.52
2019-02-26T16:54:25.755Z,11.24
2019-02-26T16:56:55.480Z,10.88
2019-02-26T16:59:25.148Z,11.18
2019-02-26T17:01:54.999Z,11.04
2019-02-26T17:04:25.199Z,11.20
2019-02-26T17:06:54.957Z,11.20
2019-02-26T17:09:24.478Z,10.85
2019-02-26T17:11:53.903Z,11.16
2019-02-26T17:14:23.677Z,10.80
2019-02-26T17:16:53.652Z,10.53
2019-02-26T17:19:23.297Z,10.41
2019-02-26T17:21:52.984Z,10.51
2019-02-26T17:24:22.435Z,10.34
2019-02-26T17:26:52.050Z,10.28
2019-02-26T17:29:21.624Z,10.02
2019-02-26T17:31:51.091Z,10.07
2019-02-26T17:34:23.523Z,10.05
2019-02-26T17:36:52.882Z,9.86
2019-02-26T17:39:23.649Z,9.99
2019-02-26T17:41:54.122Z,9.84
2019-02-26T17:44:23.863Z,9.97
2019-02-26T17:46:53.601Z,9.89
2019-02-26T17:49:23.124Z,9.63
2019-02-26T17:51:52.605Z,9.83
2019-02-26T17:54:22.014Z,9.61
2019-02-26T17:56:51.736Z,9.66
2019-02-26T17:59:21.529Z,9.55
2019-02-26T18:01:51.433Z,9.35
2019-02-26T18:04:22.917Z,9.44
2019-02-26T18:06:52.589Z,9.70
2019-02-26T18:09:22.118Z,9.58
2019-02-26T18:11:51.661Z,9.58
2019-02-26T18:14:21.536Z,9.37
2019-02-26T18:16:51.333Z,9.58
2019-02-26T18:19:22.162Z,9.25
2019-02-26T18:21:51.833Z,9.28
2019-02-26T18:24:21.460Z,9.39
2019-02-26T18:26:50.908Z,9.46
2019-02-26T18:29:20.611Z,9.34
2019-02-26T18:31:50.247Z,9.39
2019-02-26T18:34:20.608Z,9.31
2019-02-26T18:36:50.571Z,9.48
2019-02-26T18:39:22.416Z,9.12
2019-02-26T18:41:51.618Z,9.16
2019-02-26T18:44:21.442Z,8.94
2019-02-26T18:46:50.981Z,8.77
2019-02-26T18:49:21.904Z,8.77
2019-02-26T18:51:50.357Z,8.80
2019-02-26T18:54:20.309Z,8.99
2019-02-26T18:56:49.635Z,9.10
2019-02-26T18:59:21.273Z,8.90
2019-02-26T19:01:48.868Z,8.88
2019-02-26T19:04:17.875Z,8.83
2019-02-26T19:06:46.626Z,8.83
2019-02-26T19:09:16.987Z,8.69
2019-02-26T19:11:46.026Z,8.89
2019-02-26T19:14:15.042Z,8.83
2019-02-26T19:16:44.023Z,8.96
2019-02-26T19:19:12.990Z,8.98
2019-02-26T19:21:42.208Z,8.90
2019-02-26T19:24:11.013Z,8.66
2019-02-26T19:26:39.856Z,8.67
2019-02-26T19:29:10.057Z,8.71
2019-02-26T19:31:42.389Z,8.48
2019-02-26T19:34:09.688Z,8.47
2019-02-26T19:36:38.540Z,8.46
2019-02-26T19:39:07.834Z,8.28
2019-02-26T19:41:36.565Z,8.35
2019-02-26T19:44:05.326Z,8.16
2019-02-26T19:46:34.268Z,8.32
2019-02-26T19:49:05.565Z,8.30
2019-02-26T19:51:34.802Z,8.26
2019-02-26T19:54:04.689Z,8.30
2019-02-26T19:56:34.476Z,8.23
2019-02-26T19:59:03.264Z,8.12
2019-02-26T20:01:31.977Z,7.91
2019-02-26T20:04:00.780Z,7.99
2019-02-26T20:06:29.785Z,7.97
2019-02-26T20:08:58.723Z,7.93
2019-02-26T20:11:27.669Z,7.87
2019-02-26T20:14:04.544Z,7.79
2019-02-26T20:16:27.858Z,7.60
2019-02-26T20:18:59.154Z,7.75
2019-02-26T20:21:27.514Z,7.70
2019-02-26T20:23:56.319Z,7.78
2019-02-26T20:26:25.055Z,7.69
2019-02-26T20:28:54.625Z,7.51
2019-02-26T20:31:23.876Z,7.70
2019-02-26T20:33:52.571Z,7.53
2019-02-26T20:36:21.468Z,7.29
2019-02-26T20:38:50.237Z,7.43
2019-02-26T20:41:21.851Z,7.39
2019-02-26T20:43:49.503Z,7.39
2019-02-26T20:46:18.357Z,7.48
2019-02-26T20:48:47.062Z,7.25
2019-02-26T20:51:18.626Z,7.05
2019-02-26T20:53:46.402Z,7.22
2019-02-26T20:56:15.342Z,7.12
2019-02-26T20:58:44.818Z,6.93
2019-02-26T21:01:14.237Z,6.80
2019-02-26T21:03:42.993Z,6.82
2019-02-26T21:06:11.823Z,7.10
2019-02-26T21:08:40.669Z,7.12
2019-02-26T21:11:09.480Z,6.40
2019-02-26T21:13:38.295Z,6.89
2019-02-26T21:16:07.066Z,6.85
2019-02-26T21:18:36.177Z,6.73
2019-02-26T21:21:05.049Z,6.73
2019-02-26T21:23:33.764Z,6.59
2019-02-26T21:26:02.535Z,6.59
2019-02-26T21:28:33.334Z,6.55
2019-02-26T21:31:01.901Z,6.37
2019-02-26T21:33:31.388Z,6.63
2019-02-26T21:36:00.566Z,6.53
2019-02-26T21:38:29.711Z,6.53
2019-02-26T21:40:58.643Z,6.49
2019-02-26T21:43:27.378Z,6.40
2019-02-26T21:45:56.199Z,6.47
2019-02-26T21:48:24.943Z,6.36
2019-02-26T21:50:54.861Z,6.33
2019-02-26T21:53:24.597Z,6.34
2019-02-26T21:55:55.555Z,6.04
2019-02-26T21:58:26.451Z,6.00
2019-02-26T22:00:54.338Z,5.89
2019-02-26T22:03:24.801Z,5.98
2019-02-26T22:05:54.263Z,5.92
2019-02-26T22:08:24.743Z,5.88
2019-02-26T22:10:53.644Z,6.05
2019-02-26T22:13:22.398Z,5.89
2019-02-26T22:15:51.331Z,6.02
2019-02-26T22:18:20.195Z,5.87
2019-02-26T22:20:48.991Z,6.11
2019-02-26T22:23:17.769Z,6.07
2019-02-26T22:25:46.677Z,6.10
2019-02-26T22:28:15.632Z,6.04
2019-02-26T22:30:44.837Z,6.10
2019-02-26T22:33:13.828Z,6.03
2019-02-26T22:35:42.694Z,6.07
2019-02-26T22:38:15.064Z,5.91
2019-02-26T22:40:42.052Z,6.12
2019-02-26T22:43:13.419Z,5.81
2019-02-26T22:45:41.380Z,5.91
2019-02-26T22:48:13.456Z,5.99
2019-02-26T22:50:40.651Z,5.73
2019-02-26T22:53:09.508Z,5.77
2019-02-26T22:55:38.263Z,5.87
2019-02-26T22:58:06.997Z,5.81
2019-02-26T23:00:51.444Z,5.72
2019-02-26T23:03:20.277Z,5.59
2019-02-26T23:05:48.964Z,5.34
2019-02-26T23:08:17.866Z,5.27
2019-02-26T23:10:47.783Z,5.17
2019-02-26T23:13:16.571Z,5.17
2019-02-26T23:15:45.987Z,4.98
2019-02-26T23:18:15.380Z,5.04
2019-02-26T23:20:44.277Z,5.00
2019-02-26T23:23:13.002Z,5.10
2019-02-26T23:25:42.454Z,5.14
2019-02-26T23:28:11.542Z,5.09
2019-02-26T23:30:40.297Z,4.91
2019-02-26T23:33:09.313Z,4.67
2019-02-26T23:35:38.485Z,4.75
2019-02-26T23:38:08.364Z,4.79
2019-02-26T23:40:37.668Z,4.77
2019-02-26T23:43:06.765Z,4.76
2019-02-26T23:45:35.789Z,4.69
2019-02-26T23:48:07.730Z,4.74
2019-02-26T23:50:35.632Z,4.76
2019-02-26T23:53:04.612Z,4.61
2019-02-26T23:55:33.337Z,4.60
2019-02-26T23:58:02.078Z,4.53
